createdAt,value
2023-05-10T00:01:48.228Z,20.40
2023-05-10T00:04:16.512Z,20.40
2023-05-10T00:06:44.676Z,20.40
2023-05-10T00:09:13.312Z,20.30
2023-05-10T00:11:41.419Z,20.30
2023-05-10T00:14:10.896Z,20.30
2023-05-10T00:16:39.022Z,20.30
2023-05-10T00:19:07.121Z,20.30
2023-05-10T00:21:35.947Z,20.20
2023-05-10T00:24:04.322Z,20.20
2023-05-10T00:26:32.963Z,20.20
2023-05-10T00:29:01.045Z,20.20
2023-05-10T00:31:31.112Z,20.10
2023-05-10T00:33:59.688Z,20.10
2023-05-10T00:36:28.617Z,20.10
2023-05-10T00:38:57.209Z,20.10
2023-05-10T00:41:25.315Z,20.10
2023-05-10T00:43:53.410Z,20.00
2023-05-10T00:46:22.138Z,20.00
2023-05-10T00:48:52.192Z,20.00
2023-05-10T00:51:20.728Z,20.00
2023-05-10T00:53:49.405Z,20.00
2023-05-10T00:56:18.408Z,20.00
2023-05-10T00:58:46.806Z,19.90
2023-05-10T01:01:16.011Z,20.00
2023-05-10T01:03:45.100Z,19.90
2023-05-10T01:06:15.479Z,19.90
2023-05-10T01:08:44.313Z,19.90
2023-05-10T01:11:12.943Z,19.90
2023-05-10T01:13:45.845Z,19.90
2023-05-10T01:16:14.677Z,19.90
2023-05-10T01:18:44.245Z,19.80
2023-05-10T01:21:25.841Z,19.80
2023-05-10T01:24:29.964Z,19.80
2023-05-10T01:27:24.706Z,19.80
2023-05-10T01:30:15.853Z,19.80
2023-05-10T01:32:52.125Z,19.80
2023-05-10T01:35:29.059Z,19.80
2023-05-10T01:38:07.517Z,19.80
2023-05-10T01:40:42.084Z,19.80
2023-05-10T01:43:17.371Z,19.80
2023-05-10T01:45:59.748Z,19.80
2023-05-10T01:48:31.333Z,19.80
2023-05-10T01:51:00.737Z,19.80
2023-05-10T01:53:30.199Z,19.70
2023-05-10T01:55:59.866Z,19.70
2023-05-10T01:58:34.160Z,19.70
2023-05-10T02:01:05.982Z,19.70
2023-05-10T02:03:38.015Z,19.70
2023-05-10T02:06:08.278Z,19.70
2023-05-10T02:08:39.233Z,19.70
2023-05-10T02:11:07.901Z,19.60
2023-05-10T02:13:41.130Z,19.60
2023-05-10T02:16:10.547Z,19.60
2023-05-10T02:18:43.123Z,19.60
2023-05-10T02:21:14.501Z,19.60
2023-05-10T02:23:43.388Z,19.50
2023-05-10T02:26:13.434Z,19.50
2023-05-10T02:28:44.483Z,19.50
2023-05-10T02:31:13.363Z,19.50
2023-05-10T02:33:44.042Z,19.50
2023-05-10T02:36:13.176Z,19.50
2023-05-10T02:38:42.579Z,19.40
2023-05-10T02:41:12.613Z,19.40
2023-05-10T02:43:42.915Z,19.40
2023-05-10T02:46:11.587Z,19.40
2023-05-10T02:48:39.686Z,19.40
2023-05-10T02:51:10.836Z,19.40
2023-05-10T02:53:42.791Z,19.40
2023-05-10T02:56:16.114Z,19.40
2023-05-10T02:58:44.699Z,19.30
2023-05-10T03:01:12.802Z,19.30
2023-05-10T03:03:41.344Z,19.30
2023-05-10T03:06:10.801Z,19.30
2023-05-10T03:08:39.666Z,19.30
2023-05-10T03:11:22.272Z,19.20
2023-05-10T03:13:59.686Z,19.20
2023-05-10T03:16:31.536Z,19.20
2023-05-10T03:19:09.576Z,19.20
2023-05-10T03:21:43.763Z,19.10
2023-05-10T03:24:16.311Z,19.10
2023-05-10T03:26:46.852Z,19.10
2023-05-10T03:29:17.035Z,19.00
2023-05-10T03:31:45.394Z,19.00
2023-05-10T03:34:14.140Z,19.00
2023-05-10T03:36:43.624Z,19.00
2023-05-10T03:39:12.217Z,18.90
2023-05-10T03:41:40.349Z,18.90
2023-05-10T03:44:08.867Z,18.90
2023-05-10T03:46:37.037Z,18.90
2023-05-10T03:49:05.130Z,18.90
2023-05-10T03:51:33.857Z,18.80
2023-05-10T03:54:03.258Z,18.80
2023-05-10T03:56:31.796Z,18.70
2023-05-10T03:59:00.299Z,18.70
2023-05-10T04:01:28.361Z,18.70
2023-05-10T04:03:56.995Z,18.70
2023-05-10T04:06:25.136Z,18.70
2023-05-10T04:08:53.676Z,18.60
2023-05-10T04:11:23.696Z,18.60
2023-05-10T04:13:51.724Z,18.60
2023-05-10T04:16:20.289Z,18.50
2023-05-10T04:18:49.092Z,18.50
2023-05-10T04:21:17.805Z,18.50
2023-05-10T04:23:46.076Z,18.40
2023-05-10T04:26:15.469Z,18.40
2023-05-10T04:28:44.874Z,18.40
2023-05-10T04:31:13.696Z,18.40
2023-05-10T04:33:41.806Z,18.30
2023-05-10T04:36:10.416Z,18.30
2023-05-10T04:38:38.479Z,18.30
2023-05-10T04:41:07.991Z,18.30
2023-05-10T04:43:36.484Z,18.30
2023-05-10T04:46:06.390Z,18.30
2023-05-10T04:48:35.109Z,18.20
2023-05-10T04:51:04.833Z,18.20
2023-05-10T04:53:33.424Z,18.20
2023-05-10T04:56:01.530Z,18.20
2023-05-10T04:58:29.620Z,18.20
2023-05-10T05:00:58.190Z,18.20
2023-05-10T05:03:27.763Z,18.20
2023-05-10T05:05:56.333Z,18.20
2023-05-10T05:08:25.047Z,18.10
2023-05-10T05:10:53.635Z,18.10
2023-05-10T05:13:22.259Z,18.10
2023-05-10T05:15:50.363Z,18.10
2023-05-10T05:18:18.879Z,18.10
2023-05-10T05:20:48.436Z,18.10
2023-05-10T05:23:17.002Z,18.10
2023-05-10T05:25:45.042Z,18.10
2023-05-10T05:28:13.539Z,18.10
2023-05-10T05:30:41.609Z,18.10
2023-05-10T05:33:09.733Z,18.10
2023-05-10T05:35:38.286Z,18.10
2023-05-10T05:38:07.801Z,18.10
2023-05-10T05:40:36.072Z,18.10
2023-05-10T05:43:04.579Z,18.10
2023-05-10T05:45:33.129Z,18.10
2023-05-10T05:48:02.179Z,18.10
2023-05-10T05:50:30.774Z,18.10
2023-05-10T05:52:59.288Z,18.20
2023-05-10T05:55:28.834Z,18.20
2023-05-10T05:57:56.928Z,18.20
2023-05-10T06:00:25.097Z,18.20
2023-05-10T06:02:53.267Z,18.20
2023-05-10T06:05:22.380Z,18.20
2023-05-10T06:07:50.901Z,18.10
2023-05-10T06:10:20.176Z,18.20
2023-05-10T06:12:49.625Z,18.20
2023-05-10T06:15:17.961Z,18.20
2023-05-10T06:17:46.691Z,18.20
2023-05-10T06:20:15.657Z,18.20
2023-05-10T06:22:43.765Z,18.20
2023-05-10T06:25:13.071Z,18.20
2023-05-10T06:27:41.082Z,18.30
2023-05-10T06:30:14.770Z,18.30
2023-05-10T06:32:45.267Z,18.30
2023-05-10T06:35:13.958Z,18.30
2023-05-10T06:37:42.018Z,18.30
2023-05-10T06:40:11.117Z,18.40
2023-05-10T06:42:39.617Z,18.40
2023-05-10T06:45:10.132Z,18.40
2023-05-10T06:47:40.087Z,18.40
2023-05-10T06:50:09.754Z,18.40
2023-05-10T06:52:37.856Z,18.50
2023-05-10T06:55:07.307Z,18.50
2023-05-10T06:57:35.306Z,18.50
2023-05-10T07:00:06.359Z,18.50
2023-05-10T07:02:34.978Z,18.60
2023-05-10T07:05:04.997Z,18.60
2023-05-10T07:07:33.179Z,18.60
2023-05-10T07:10:01.954Z,18.60
2023-05-10T07:12:30.045Z,18.70
2023-05-10T07:14:58.625Z,18.70
2023-05-10T07:17:26.813Z,18.70
2023-05-10T07:19:54.967Z,18.70
2023-05-10T07:22:24.838Z,18.70
2023-05-10T07:24:52.905Z,18.80
2023-05-10T07:27:21.474Z,18.80
2023-05-10T07:29:49.606Z,18.80
2023-05-10T07:32:17.741Z,18.80
2023-05-10T07:34:45.913Z,18.80
2023-05-10T07:37:14.127Z,18.80
2023-05-10T07:39:43.568Z,18.80
2023-05-10T07:42:12.165Z,18.80
2023-05-10T07:44:42.793Z,18.80
2023-05-10T07:47:11.299Z,18.80
2023-05-10T07:49:39.897Z,18.80
2023-05-10T07:52:08.044Z,18.80
2023-05-10T07:54:36.551Z,18.80
2023-05-10T07:57:06.583Z,18.80
2023-05-10T07:59:35.150Z,18.80
2023-05-10T08:02:03.739Z,19.50
2023-05-10T08:04:31.874Z,18.80
2023-05-10T08:07:00.417Z,18.90
2023-05-10T08:09:28.449Z,18.90
2023-05-10T08:11:56.988Z,18.90
2023-05-10T08:14:26.383Z,18.90
2023-05-10T08:16:54.916Z,19.00
2023-05-10T08:19:23.699Z,19.00
2023-05-10T08:21:52.447Z,19.10
2023-05-10T08:24:20.945Z,19.10
2023-05-10T08:26:49.544Z,19.10
2023-05-10T08:29:18.462Z,19.10
2023-05-10T08:31:48.486Z,19.20
2023-05-10T08:34:16.815Z,19.20
2023-05-10T08:36:44.887Z,19.20
2023-05-10T08:39:19.477Z,19.10
2023-05-10T08:42:03.370Z,19.10
2023-05-10T08:44:32.978Z,19.10
2023-05-10T08:47:07.324Z,19.00
2023-05-10T08:49:36.065Z,19.00
2023-05-10T08:52:06.990Z,19.00
2023-05-10T08:54:35.373Z,18.90
2023-05-10T08:57:04.611Z,18.90
2023-05-10T08:59:32.971Z,18.90
2023-05-10T09:02:04.039Z,18.90
2023-05-10T09:04:32.877Z,18.90
2023-05-10T09:07:01.499Z,18.90
2023-05-10T09:09:30.104Z,19.00
2023-05-10T09:11:58.993Z,19.00
2023-05-10T09:14:27.875Z,19.00
2023-05-10T09:16:56.715Z,19.10
2023-05-10T09:19:26.747Z,19.10
2023-05-10T09:21:55.260Z,19.20
2023-05-10T09:24:27.927Z,19.20
2023-05-10T09:26:56.461Z,19.20
2023-05-10T09:29:25.200Z,19.20
2023-05-10T09:31:55.739Z,19.30
2023-05-10T09:34:33.941Z,19.40
2023-05-10T09:37:05.223Z,19.40
2023-05-10T09:39:34.531Z,19.50
2023-05-10T09:42:05.737Z,19.50
2023-05-10T09:44:35.011Z,19.60
2023-05-10T09:47:03.466Z,19.60
2023-05-10T09:49:34.630Z,19.60
2023-05-10T09:52:05.220Z,19.70
2023-05-10T09:54:34.174Z,19.70
2023-05-10T09:57:02.800Z,19.70
2023-05-10T09:59:31.879Z,19.80
2023-05-10T10:02:01.983Z,19.80
2023-05-10T10:04:31.011Z,19.90
2023-05-10T10:07:04.927Z,19.90
2023-05-10T10:09:34.108Z,20.00
2023-05-10T10:12:02.949Z,20.00
2023-05-10T10:14:32.104Z,20.00
2023-05-10T10:17:07.771Z,20.00
2023-05-10T10:19:38.307Z,20.00
2023-05-10T10:22:08.235Z,20.00
2023-05-10T10:24:36.924Z,20.00
2023-05-10T10:27:24.434Z,20.00
2023-05-10T10:30:04.432Z,20.00
2023-05-10T10:32:45.193Z,20.00
2023-05-10T10:35:14.395Z,20.00
2023-05-10T10:37:48.328Z,20.00
2023-05-10T10:40:28.597Z,20.00
2023-05-10T10:42:57.992Z,20.00
2023-05-10T10:45:27.478Z,20.00
2023-05-10T10:48:24.391Z,20.00
2023-05-10T10:51:00.232Z,20.00
2023-05-10T10:53:30.543Z,20.00
2023-05-10T10:56:09.218Z,20.00
2023-05-10T10:58:38.008Z,20.10
2023-05-10T11:01:18.240Z,20.10
2023-05-10T11:04:20.800Z,20.20
2023-05-10T11:06:48.961Z,20.20
2023-05-10T11:09:18.552Z,20.30
2023-05-10T11:11:53.452Z,20.30
2023-05-10T11:14:23.477Z,20.30
2023-05-10T11:16:52.291Z,20.30
2023-05-10T11:19:21.420Z,20.30
2023-05-10T11:21:51.480Z,20.30
2023-05-10T11:24:23.390Z,20.30
2023-05-10T11:26:53.596Z,20.20
2023-05-10T11:29:22.005Z,20.20
2023-05-10T11:31:51.961Z,20.20
2023-05-10T11:34:26.915Z,20.20
2023-05-10T11:36:56.670Z,20.20
2023-05-10T11:39:29.645Z,20.20
2023-05-10T11:41:58.926Z,20.30
2023-05-10T11:44:32.273Z,20.20
2023-05-10T11:47:01.929Z,20.30
2023-05-10T11:49:30.760Z,20.30
2023-05-10T11:52:07.300Z,20.40
2023-05-10T11:54:37.383Z,20.40
2023-05-10T11:57:06.058Z,20.40
2023-05-10T11:59:34.677Z,20.50
2023-05-10T12:02:03.209Z,20.50
2023-05-10T12:04:31.955Z,20.60
2023-05-10T12:07:00.283Z,20.60
2023-05-10T12:09:42.775Z,20.70
2023-05-10T12:12:18.941Z,20.70
2023-05-10T12:14:51.062Z,20.70
2023-05-10T12:17:19.722Z,20.70
2023-05-10T12:19:48.354Z,20.70
2023-05-10T12:22:16.965Z,20.80
2023-05-10T12:24:47.446Z,20.80
2023-05-10T12:27:17.409Z,20.80
2023-05-10T12:29:46.073Z,20.90
2023-05-10T12:32:14.668Z,20.90
2023-05-10T12:34:42.742Z,21.00
2023-05-10T12:37:11.296Z,21.00
2023-05-10T12:39:42.987Z,21.10
2023-05-10T12:42:11.900Z,21.10
2023-05-10T12:44:42.071Z,21.20
2023-05-10T12:47:10.185Z,21.20
2023-05-10T12:49:38.743Z,21.30
2023-05-10T12:52:06.889Z,21.30
2023-05-10T12:54:35.502Z,21.40
2023-05-10T12:57:03.593Z,21.40
2023-05-10T12:59:32.146Z,21.40
2023-05-10T13:02:02.371Z,21.40
2023-05-10T13:04:30.509Z,21.40
2023-05-10T13:06:59.960Z,21.50
2023-05-10T13:09:30.822Z,21.50
2023-05-10T13:12:00.430Z,21.50
2023-05-10T13:14:28.866Z,21.50
2023-05-10T13:16:57.042Z,21.50
2023-05-10T13:19:27.087Z,21.50
2023-05-10T13:21:55.375Z,21.50
2023-05-10T13:24:23.921Z,21.50
2023-05-10T13:26:52.037Z,21.50
2023-05-10T13:29:20.682Z,21.50
2023-05-10T13:31:48.810Z,21.40
2023-05-10T13:34:17.780Z,21.40
2023-05-10T13:36:47.371Z,21.40
2023-05-10T13:39:15.437Z,21.40
2023-05-10T13:41:44.349Z,21.40
2023-05-10T13:44:15.175Z,21.30
2023-05-10T13:46:43.589Z,21.30
2023-05-10T13:49:12.615Z,21.20
2023-05-10T13:51:41.142Z,21.20
2023-05-10T13:54:12.714Z,21.20
2023-05-10T13:56:42.312Z,21.20
2023-05-10T13:59:10.842Z,21.10
2023-05-10T14:01:39.798Z,21.10
2023-05-10T14:04:08.122Z,21.10
2023-05-10T14:06:36.866Z,21.10
2023-05-10T14:09:05.810Z,21.10
2023-05-10T14:11:35.767Z,21.10
2023-05-10T14:14:04.528Z,21.10
2023-05-10T14:16:33.324Z,21.10
2023-05-10T14:19:01.582Z,21.10
2023-05-10T14:21:30.944Z,21.10
2023-05-10T14:23:59.219Z,21.10
2023-05-10T14:26:27.798Z,21.10
2023-05-10T14:28:57.349Z,21.10
2023-05-10T14:31:26.903Z,21.10
2023-05-10T14:33:55.978Z,21.00
2023-05-10T14:36:24.184Z,21.00
2023-05-10T14:38:53.092Z,21.00
2023-05-10T14:41:21.210Z,21.00
2023-05-10T14:43:49.751Z,21.00
2023-05-10T14:46:19.248Z,20.90
2023-05-10T14:48:47.830Z,19.50
2023-05-10T14:51:16.438Z,20.80
2023-05-10T14:53:45.600Z,20.80
2023-05-10T14:56:13.656Z,20.70
2023-05-10T14:58:42.195Z,20.70
2023-05-10T15:01:10.820Z,20.60
2023-05-10T15:03:41.473Z,20.50
2023-05-10T15:06:11.460Z,20.50
2023-05-10T15:08:39.554Z,20.40
2023-05-10T15:11:08.096Z,20.40
2023-05-10T15:13:36.749Z,20.30
2023-05-10T15:16:04.949Z,20.30
2023-05-10T15:18:33.584Z,20.20
2023-05-10T15:21:03.023Z,20.20
2023-05-10T15:23:31.831Z,20.10
2023-05-10T15:26:00.376Z,20.10
2023-05-10T15:28:28.961Z,20.00
2023-05-10T15:30:57.911Z,20.00
2023-05-10T15:33:26.028Z,20.00
2023-05-10T15:35:55.672Z,20.00
2023-05-10T15:38:25.640Z,19.90
2023-05-10T15:40:57.257Z,19.90
2023-05-10T15:43:25.797Z,19.90
2023-05-10T15:45:53.882Z,19.90
2023-05-10T15:48:22.467Z,19.80
2023-05-10T15:50:50.574Z,19.80
2023-05-10T15:53:18.644Z,19.80
2023-05-10T15:55:48.561Z,19.70
2023-05-10T15:58:16.841Z,19.70
2023-05-10T16:00:45.521Z,19.70
2023-05-10T16:03:13.785Z,19.70
2023-05-10T16:05:42.384Z,19.70
2023-05-10T16:08:10.487Z,19.70
2023-05-10T16:10:39.406Z,19.70
2023-05-10T16:13:09.726Z,19.70
2023-05-10T16:15:37.877Z,19.80
2023-05-10T16:18:06.881Z,19.80
2023-05-10T16:20:35.077Z,19.80
2023-05-10T16:23:05.695Z,19.80
2023-05-10T16:25:34.480Z,19.80
2023-05-10T16:28:03.417Z,19.80
2023-05-10T16:30:33.401Z,19.80
2023-05-10T16:33:02.468Z,19.80
2023-05-10T16:35:31.400Z,19.80
2023-05-10T16:37:59.507Z,19.80
2023-05-10T16:40:28.278Z,19.80
2023-05-10T16:42:56.364Z,19.80
2023-05-10T16:45:26.254Z,19.70
2023-05-10T16:47:57.717Z,19.80
2023-05-10T16:50:25.922Z,19.70
2023-05-10T16:52:54.790Z,19.70
2023-05-10T16:55:25.421Z,19.70
2023-05-10T16:57:59.651Z,19.70
2023-05-10T17:00:28.084Z,19.70
2023-05-10T17:02:58.171Z,19.70
2023-05-10T17:05:27.266Z,19.70
2023-05-10T17:07:56.525Z,19.70
2023-05-10T17:10:27.749Z,19.70
2023-05-10T17:12:55.898Z,19.70
2023-05-10T17:15:24.054Z,19.70
2023-05-10T17:17:52.209Z,19.60
2023-05-10T17:20:22.324Z,19.60
2023-05-10T17:22:50.972Z,19.60
2023-05-10T17:25:19.458Z,19.60
2023-05-10T17:27:48.307Z,19.50
2023-05-10T17:30:17.030Z,19.50
2023-05-10T17:32:45.146Z,19.50
2023-05-10T17:35:14.915Z,19.40
2023-05-10T17:37:46.010Z,19.40
2023-05-10T17:40:14.499Z,19.40
2023-05-10T17:42:42.794Z,19.40
2023-05-10T17:45:12.775Z,19.40
2023-05-10T17:47:40.894Z,19.30
2023-05-10T17:50:10.716Z,19.30
2023-05-10T17:52:39.566Z,19.30
2023-05-10T17:55:10.502Z,19.30
2023-05-10T17:57:38.879Z,19.20
2023-05-10T18:00:08.777Z,19.20
2023-05-10T18:02:37.524Z,19.20
2023-05-10T18:05:06.664Z,19.20
2023-05-10T18:07:35.887Z,19.20
2023-05-10T18:10:04.029Z,19.10
2023-05-10T18:12:33.538Z,19.10
2023-05-10T18:15:01.612Z,19.10
2023-05-10T18:17:30.231Z,19.10
2023-05-10T18:19:58.299Z,19.10
2023-05-10T18:22:27.580Z,19.10
2023-05-10T18:24:56.555Z,19.10
2023-05-10T18:27:25.120Z,19.00
2023-05-10T18:29:54.552Z,19.00
2023-05-10T18:32:23.160Z,19.00
2023-05-10T18:34:51.644Z,18.90
2023-05-10T18:37:20.991Z,18.90
2023-05-10T18:39:49.630Z,18.90
2023-05-10T18:42:18.409Z,18.90
2023-05-10T18:44:46.933Z,18.80
2023-05-10T18:47:16.363Z,18.80
2023-05-10T18:49:45.279Z,18.80
2023-05-10T18:52:14.113Z,18.70
2023-05-10T18:54:42.681Z,18.70
2023-05-10T18:57:10.832Z,18.70
2023-05-10T18:59:39.418Z,18.70
2023-05-10T19:02:07.562Z,18.70
2023-05-10T19:04:38.256Z,18.60
2023-05-10T19:07:06.814Z,18.60
2023-05-10T19:09:34.868Z,18.60
2023-05-10T19:12:03.241Z,18.60
2023-05-10T19:14:31.317Z,18.50
2023-05-10T19:16:59.400Z,18.50
2023-05-10T19:19:28.262Z,18.50
2023-05-10T19:21:57.744Z,18.50
2023-05-10T19:24:26.453Z,18.40
2023-05-10T19:26:55.855Z,18.40
2023-05-10T19:29:25.787Z,18.40
2023-05-10T19:31:54.456Z,18.40
2023-05-10T19:34:23.167Z,18.40
2023-05-10T19:36:51.959Z,18.40
2023-05-10T19:39:22.011Z,18.30
2023-05-10T19:41:50.976Z,18.30
2023-05-10T19:44:19.185Z,18.30
2023-05-10T19:46:48.346Z,18.30
2023-05-10T19:49:16.477Z,18.30
2023-05-10T19:51:45.078Z,18.30
2023-05-10T19:54:13.159Z,18.30
2023-05-10T19:56:43.029Z,18.20
2023-05-10T19:59:11.131Z,18.20
2023-05-10T20:01:40.101Z,18.20
2023-05-10T20:04:09.036Z,18.20
2023-05-10T20:06:37.182Z,18.20
2023-05-10T20:09:05.845Z,18.10
2023-05-10T20:11:34.060Z,18.10
2023-05-10T20:14:05.298Z,18.10
2023-05-10T20:16:33.441Z,18.00
2023-05-10T20:19:01.575Z,18.00
2023-05-10T20:21:30.379Z,18.00
2023-05-10T20:23:58.439Z,18.00
2023-05-10T20:26:27.271Z,17.90
2023-05-10T20:28:55.368Z,17.90
2023-05-10T20:31:25.447Z,17.90
2023-05-10T20:33:53.560Z,17.90
2023-05-10T20:36:22.242Z,17.90
2023-05-10T20:38:50.488Z,17.90
2023-05-10T20:41:19.036Z,17.90
2023-05-10T20:43:47.123Z,17.90
2023-05-10T20:46:15.297Z,17.90
2023-05-10T20:48:44.768Z,17.90
2023-05-10T20:51:12.859Z,17.90
2023-05-10T20:53:40.934Z,17.90
2023-05-10T20:56:09.641Z,17.90
2023-05-10T20:58:38.198Z,17.90
2023-05-10T21:01:06.272Z,17.90
2023-05-10T21:03:34.840Z,17.90
2023-05-10T21:06:04.262Z,17.90
2023-05-10T21:08:32.317Z,17.90
2023-05-10T21:11:05.166Z,17.90
2023-05-10T21:13:33.258Z,17.90
2023-05-10T21:16:02.082Z,17.90
2023-05-10T21:18:30.140Z,17.90
2023-05-10T21:20:59.661Z,17.90
2023-05-10T21:23:29.545Z,17.80
2023-05-10T21:25:58.124Z,17.80
2023-05-10T21:28:26.288Z,17.80
2023-05-10T21:30:54.816Z,17.80
2023-05-10T21:33:22.952Z,17.80
2023-05-10T21:35:51.788Z,17.80
2023-05-10T21:38:22.943Z,17.70
2023-05-10T21:40:52.866Z,17.70
2023-05-10T21:43:21.160Z,17.70
2023-05-10T21:45:49.264Z,17.70
2023-05-10T21:48:17.849Z,17.70
2023-05-10T21:50:47.575Z,17.70
2023-05-10T21:53:16.093Z,17.70
2023-05-10T21:55:44.206Z,17.70
2023-05-10T21:58:14.091Z,17.60
2023-05-10T22:00:42.142Z,17.60
2023-05-10T22:03:10.746Z,17.60
2023-05-10T22:05:39.330Z,17.60
2023-05-10T22:08:07.906Z,17.60
2023-05-10T22:10:36.423Z,17.60
2023-05-10T22:13:04.500Z,17.50
2023-05-10T22:15:36.338Z,17.50
2023-05-10T22:18:05.461Z,17.50
2023-05-10T22:20:34.115Z,17.50
2023-05-10T22:23:02.180Z,17.50
2023-05-10T22:25:31.137Z,17.40
2023-05-10T22:27:59.685Z,17.40
2023-05-10T22:30:27.731Z,17.40
2023-05-10T22:32:59.311Z,17.40
2023-05-10T22:35:27.397Z,17.40
2023-05-10T22:37:55.562Z,17.40
2023-05-10T22:40:24.068Z,17.40
2023-05-10T22:42:52.399Z,17.30
2023-05-10T22:45:20.450Z,17.30
2023-05-10T22:47:48.549Z,17.30
2023-05-10T22:50:18.823Z,17.30
2023-05-10T22:52:47.270Z,17.30
2023-05-10T22:55:16.050Z,17.30
2023-05-10T22:57:44.644Z,17.20
2023-05-10T23:00:14.671Z,17.20
2023-05-10T23:02:43.680Z,17.20
2023-05-10T23:05:11.917Z,17.20
2023-05-10T23:07:41.879Z,17.20
2023-05-10T23:10:10.690Z,17.20
2023-05-10T23:12:38.787Z,17.20
2023-05-10T23:15:08.500Z,17.10
2023-05-10T23:17:37.016Z,17.10
2023-05-10T23:20:05.466Z,17.10
2023-05-10T23:22:33.557Z,17.10
2023-05-10T23:25:03.084Z,17.10
2023-05-10T23:27:31.450Z,17.10
2023-05-10T23:30:00.050Z,17.10
2023-05-10T23:32:28.141Z,17.10
2023-05-10T23:34:56.977Z,17.10
2023-05-10T23:37:25.616Z,17.10
2023-05-10T23:39:53.693Z,17.10
2023-05-10T23:42:23.908Z,17.10
2023-05-10T23:44:52.308Z,17.10
2023-05-10T23:47:20.912Z,17.10
2023-05-10T23:49:51.102Z,17.00
2023-05-10T23:52:22.744Z,17.00
2023-05-10T23:54:51.262Z,17.00
2023-05-10T23:57:19.306Z,17.00
2023-05-10T23:59:48.936Z,17.00
